sensor_id;sensor_type;location;lat;lon;timestamp;P1;durP1;ratioP1;P2;durP2;ratioP2
41881;SDS011;27562;47.524;12.404;2023-04-25T00:00:16;2.00;;;1.10;;
41881;SDS011;27562;47.524;12.404;2023-04-25T00:02:42;1.30;;;0.80;;
41881;SDS011;27562;47.524;12.404;2023-04-25T00:05:08;1.65;;;1.00;;
41881;SDS011;27562;47.524;12.404;2023-04-25T00:07:34;2.60;;;0.88;;
41881;SDS011;27562;47.524;12.404;2023-04-25T00:10:00;1.52;;;1.00;;
41881;SDS011;27562;47.524;12.404;2023-04-25T00:12:26;1.45;;;1.00;;
41881;SDS011;27562;47.524;12.404;2023-04-25T00:14:53;2.90;;;1.08;;
41881;SDS011;27562;47.524;12.404;2023-04-25T00:17:22;1.98;;;1.10;;
41881;SDS011;27562;47.524;12.404;2023-04-25T00:19:51;3.42;;;1.00;;
41881;SDS011;27562;47.524;12.404;2023-04-25T00:22:17;3.60;;;1.05;;
41881;SDS011;27562;47.524;12.404;2023-04-25T00:24:43;1.98;;;1.00;;
41881;SDS011;27562;47.524;12.404;2023-04-25T00:27:09;1.70;;;1.10;;
41881;SDS011;27562;47.524;12.404;2023-04-25T00:29:34;1.85;;;1.05;;
41881;SDS011;27562;47.524;12.404;2023-04-25T00:32:00;1.60;;;1.08;;
41881;SDS011;27562;47.524;12.404;2023-04-25T00:34:26;3.08;;;1.20;;
41881;SDS011;27562;47.524;12.404;2023-04-25T00:36:52;3.70;;;1.25;;
41881;SDS011;27562;47.524;12.404;2023-04-25T00:39:18;3.63;;;1.40;;
41881;SDS011;27562;47.524;12.404;2023-04-25T00:41:44;2.20;;;1.20;;
41881;SDS011;27562;47.524;12.404;2023-04-25T00:44:10;2.05;;;1.27;;
41881;SDS011;27562;47.524;12.404;2023-04-25T00:46:38;2.60;;;1.17;;
41881;SDS011;27562;47.524;12.404;2023-04-25T00:49:04;4.18;;;1.20;;
41881;SDS011;27562;47.524;12.404;2023-04-25T00:51:30;1.70;;;1.05;;
41881;SDS011;27562;47.524;12.404;2023-04-25T00:53:57;2.45;;;1.48;;
41881;SDS011;27562;47.524;12.404;2023-04-25T00:56:22;1.73;;;1.10;;
41881;SDS011;27562;47.524;12.404;2023-04-25T00:58:48;2.00;;;1.10;;
41881;SDS011;27562;47.524;12.404;2023-04-25T01:01:15;2.13;;;1.10;;
41881;SDS011;27562;47.524;12.404;2023-04-25T01:03:41;2.10;;;1.10;;
41881;SDS011;27562;47.524;12.404;2023-04-25T01:06:09;2.00;;;0.98;;
41881;SDS011;27562;47.524;12.404;2023-04-25T01:08:35;2.55;;;1.35;;
41881;SDS011;27562;47.524;12.404;2023-04-25T01:11:01;1.90;;;1.10;;
41881;SDS011;27562;47.524;12.404;2023-04-25T01:13:27;1.60;;;1.10;;
41881;SDS011;27562;47.524;12.404;2023-04-25T01:15:53;1.88;;;0.98;;
41881;SDS011;27562;47.524;12.404;2023-04-25T01:18:19;1.23;;;0.82;;
41881;SDS011;27562;47.524;12.404;2023-04-25T01:20:45;1.35;;;0.95;;
41881;SDS011;27562;47.524;12.404;2023-04-25T01:23:15;2.65;;;1.00;;
41881;SDS011;27562;47.524;12.404;2023-04-25T01:25:41;2.40;;;1.15;;
41881;SDS011;27562;47.524;12.404;2023-04-25T01:28:07;2.42;;;0.98;;
41881;SDS011;27562;47.524;12.404;2023-04-25T01:30:33;3.45;;;1.23;;
41881;SDS011;27562;47.524;12.404;2023-04-25T01:33:00;2.47;;;1.00;;
41881;SDS011;27562;47.524;12.404;2023-04-25T01:35:27;2.35;;;1.13;;
41881;SDS011;27562;47.524;12.404;2023-04-25T01:37:53;2.58;;;1.23;;
41881;SDS011;27562;47.524;12.404;2023-04-25T01:40:18;1.70;;;1.23;;
41881;SDS011;27562;47.524;12.404;2023-04-25T01:42:46;2.20;;;1.50;;
41881;SDS011;27562;47.524;12.404;2023-04-25T01:45:12;3.75;;;2.10;;
41881;SDS011;27562;47.524;12.404;2023-04-25T01:47:38;7.53;;;3.83;;
41881;SDS011;27562;47.524;12.404;2023-04-25T01:50:05;8.73;;;4.43;;
41881;SDS011;27562;47.524;12.404;2023-04-25T01:52:32;9.27;;;4.40;;
41881;SDS011;27562;47.524;12.404;2023-04-25T01:54:59;8.15;;;3.90;;
41881;SDS011;27562;47.524;12.404;2023-04-25T01:57:29;4.80;;;2.63;;
41881;SDS011;27562;47.524;12.404;2023-04-25T01:59:57;3.75;;;2.08;;
41881;SDS011;27562;47.524;12.404;2023-04-25T02:02:25;3.20;;;1.52;;
41881;SDS011;27562;47.524;12.404;2023-04-25T02:04:51;2.20;;;1.30;;
41881;SDS011;27562;47.524;12.404;2023-04-25T02:07:17;3.85;;;1.40;;
41881;SDS011;27562;47.524;12.404;2023-04-25T02:09:43;2.53;;;1.10;;
41881;SDS011;27562;47.524;12.404;2023-04-25T02:12:09;1.98;;;1.13;;
41881;SDS011;27562;47.524;12.404;2023-04-25T02:14:36;1.95;;;1.20;;
41881;SDS011;27562;47.524;12.404;2023-04-25T02:17:02;2.75;;;1.27;;
41881;SDS011;27562;47.524;12.404;2023-04-25T02:19:28;2.28;;;1.00;;
41881;SDS011;27562;47.524;12.404;2023-04-25T02:21:53;1.85;;;1.20;;
41881;SDS011;27562;47.524;12.404;2023-04-25T02:24:20;2.30;;;1.20;;
41881;SDS011;27562;47.524;12.404;2023-04-25T02:26:45;2.10;;;1.30;;
41881;SDS011;27562;47.524;12.404;2023-04-25T02:29:12;2.95;;;1.48;;
41881;SDS011;27562;47.524;12.404;2023-04-25T02:31:38;2.83;;;1.30;;
41881;SDS011;27562;47.524;12.404;2023-04-25T02:34:03;2.55;;;1.42;;
41881;SDS011;27562;47.524;12.404;2023-04-25T02:36:29;3.53;;;1.60;;
41881;SDS011;27562;47.524;12.404;2023-04-25T02:38:59;2.40;;;1.38;;
41881;SDS011;27562;47.524;12.404;2023-04-25T02:41:25;4.68;;;1.63;;
41881;SDS011;27562;47.524;12.404;2023-04-25T02:43:51;2.58;;;1.50;;
41881;SDS011;27562;47.524;12.404;2023-04-25T02:46:17;2.78;;;1.50;;
41881;SDS011;27562;47.524;12.404;2023-04-25T02:48:43;2.33;;;1.50;;
41881;SDS011;27562;47.524;12.404;2023-04-25T02:51:09;3.08;;;1.70;;
41881;SDS011;27562;47.524;12.404;2023-04-25T02:53:34;2.88;;;1.63;;
41881;SDS011;27562;47.524;12.404;2023-04-25T02:56:00;4.50;;;2.55;;
41881;SDS011;27562;47.524;12.404;2023-04-25T02:58:26;4.25;;;2.38;;
41881;SDS011;27562;47.524;12.404;2023-04-25T03:00:52;4.75;;;2.08;;
41881;SDS011;27562;47.524;12.404;2023-04-25T03:03:18;3.40;;;1.92;;
41881;SDS011;27562;47.524;12.404;2023-04-25T03:05:46;3.20;;;1.85;;
41881;SDS011;27562;47.524;12.404;2023-04-25T03:08:16;3.13;;;1.60;;
41881;SDS011;27562;47.524;12.404;2023-04-25T03:10:42;4.13;;;1.80;;
41881;SDS011;27562;47.524;12.404;2023-04-25T03:13:08;2.83;;;1.52;;
41881;SDS011;27562;47.524;12.404;2023-04-25T03:15:34;3.58;;;1.60;;
41881;SDS011;27562;47.524;12.404;2023-04-25T03:18:01;2.72;;;1.60;;
41881;SDS011;27562;47.524;12.404;2023-04-25T03:20:26;3.00;;;1.65;;
41881;SDS011;27562;47.524;12.404;2023-04-25T03:22:52;3.75;;;1.70;;
41881;SDS011;27562;47.524;12.404;2023-04-25T03:25:18;3.00;;;1.75;;
41881;SDS011;27562;47.524;12.404;2023-04-25T03:27:44;3.38;;;1.40;;
41881;SDS011;27562;47.524;12.404;2023-04-25T03:30:10;2.78;;;1.48;;
41881;SDS011;27562;47.524;12.404;2023-04-25T03:32:36;3.10;;;1.80;;
41881;SDS011;27562;47.524;12.404;2023-04-25T03:35:03;2.58;;;1.63;;
41881;SDS011;27562;47.524;12.404;2023-04-25T03:37:30;3.47;;;1.75;;
41881;SDS011;27562;47.524;12.404;2023-04-25T03:39:56;2.80;;;1.67;;
41881;SDS011;27562;47.524;12.404;2023-04-25T03:42:22;3.80;;;2.00;;
41881;SDS011;27562;47.524;12.404;2023-04-25T03:44:51;4.65;;;3.20;;
41881;SDS011;27562;47.524;12.404;2023-04-25T03:47:17;4.78;;;3.08;;
41881;SDS011;27562;47.524;12.404;2023-04-25T03:49:42;4.38;;;2.90;;
41881;SDS011;27562;47.524;12.404;2023-04-25T03:52:09;3.88;;;2.63;;
41881;SDS011;27562;47.524;12.404;2023-04-25T03:54:35;4.20;;;2.08;;
41881;SDS011;27562;47.524;12.404;2023-04-25T03:57:01;4.57;;;2.30;;
41881;SDS011;27562;47.524;12.404;2023-04-25T03:59:26;2.88;;;1.95;;
41881;SDS011;27562;47.524;12.404;2023-04-25T04:01:52;3.13;;;2.15;;
41881;SDS011;27562;47.524;12.404;2023-04-25T04:04:18;3.58;;;1.95;;
41881;SDS011;27562;47.524;12.404;2023-04-25T04:06:44;3.17;;;2.17;;
41881;SDS011;27562;47.524;12.404;2023-04-25T04:09:10;4.53;;;2.30;;
41881;SDS011;27562;47.524;12.404;2023-04-25T04:11:37;4.25;;;2.10;;
41881;SDS011;27562;47.524;12.404;2023-04-25T04:14:06;3.45;;;2.20;;
41881;SDS011;27562;47.524;12.404;2023-04-25T04:16:32;6.95;;;4.30;;
41881;SDS011;27562;47.524;12.404;2023-04-25T04:18:58;6.10;;;4.70;;
41881;SDS011;27562;47.524;12.404;2023-04-25T04:21:24;6.93;;;5.55;;
41881;SDS011;27562;47.524;12.404;2023-04-25T04:23:51;5.90;;;4.25;;
41881;SDS011;27562;47.524;12.404;2023-04-25T04:26:17;5.28;;;3.13;;
41881;SDS011;27562;47.524;12.404;2023-04-25T04:28:43;3.80;;;2.20;;
41881;SDS011;27562;47.524;12.404;2023-04-25T04:31:09;4.13;;;2.30;;
41881;SDS011;27562;47.524;12.404;2023-04-25T04:33:35;2.72;;;1.85;;
41881;SDS011;27562;47.524;12.404;2023-04-25T04:36:02;5.15;;;2.70;;
41881;SDS011;27562;47.524;12.404;2023-04-25T04:38:28;11.45;;;5.90;;
41881;SDS011;27562;47.524;12.404;2023-04-25T04:40:54;15.43;;;6.65;;
41881;SDS011;27562;47.524;12.404;2023-04-25T04:43:20;10.43;;;6.28;;
41881;SDS011;27562;47.524;12.404;2023-04-25T04:45:47;9.57;;;5.05;;
41881;SDS011;27562;47.524;12.404;2023-04-25T04:48:15;6.53;;;3.47;;
41881;SDS011;27562;47.524;12.404;2023-04-25T04:50:42;4.85;;;3.15;;
41881;SDS011;27562;47.524;12.404;2023-04-25T04:53:10;4.15;;;2.92;;
41881;SDS011;27562;47.524;12.404;2023-04-25T04:55:36;4.57;;;2.85;;
41881;SDS011;27562;47.524;12.404;2023-04-25T04:58:02;3.33;;;2.20;;
41881;SDS011;27562;47.524;12.404;2023-04-25T05:00:28;4.88;;;3.30;;
41881;SDS011;27562;47.524;12.404;2023-04-25T05:02:54;4.30;;;2.50;;
41881;SDS011;27562;47.524;12.404;2023-04-25T05:05:23;2.97;;;2.03;;
41881;SDS011;27562;47.524;12.404;2023-04-25T05:07:50;4.68;;;2.47;;
41881;SDS011;27562;47.524;12.404;2023-04-25T05:10:16;2.97;;;2.40;;
41881;SDS011;27562;47.524;12.404;2023-04-25T05:12:43;4.80;;;2.75;;
41881;SDS011;27562;47.524;12.404;2023-04-25T05:15:09;4.63;;;2.55;;
41881;SDS011;27562;47.524;12.404;2023-04-25T05:17:36;7.60;;;4.72;;
41881;SDS011;27562;47.524;12.404;2023-04-25T05:20:01;8.45;;;5.30;;
41881;SDS011;27562;47.524;12.404;2023-04-25T05:22:28;7.93;;;4.90;;
41881;SDS011;27562;47.524;12.404;2023-04-25T05:24:53;7.82;;;4.85;;
41881;SDS011;27562;47.524;12.404;2023-04-25T05:27:19;7.45;;;4.10;;
41881;SDS011;27562;47.524;12.404;2023-04-25T05:29:45;6.63;;;4.47;;
41881;SDS011;27562;47.524;12.404;2023-04-25T05:32:11;7.65;;;4.97;;
41881;SDS011;27562;47.524;12.404;2023-04-25T05:34:36;11.10;;;6.93;;
41881;SDS011;27562;47.524;12.404;2023-04-25T05:37:02;10.20;;;6.95;;
41881;SDS011;27562;47.524;12.404;2023-04-25T05:39:28;11.95;;;7.53;;
41881;SDS011;27562;47.524;12.404;2023-04-25T05:41:54;12.35;;;7.50;;
41881;SDS011;27562;47.524;12.404;2023-04-25T05:44:19;9.30;;;5.60;;
41881;SDS011;27562;47.524;12.404;2023-04-25T05:46:45;7.45;;;4.43;;
41881;SDS011;27562;47.524;12.404;2023-04-25T05:49:11;6.20;;;3.78;;
41881;SDS011;27562;47.524;12.404;2023-04-25T05:51:36;4.25;;;2.42;;
41881;SDS011;27562;47.524;12.404;2023-04-25T05:54:02;5.18;;;3.22;;
41881;SDS011;27562;47.524;12.404;2023-04-25T05:56:28;5.28;;;2.70;;
41881;SDS011;27562;47.524;12.404;2023-04-25T05:58:53;5.75;;;3.10;;
41881;SDS011;27562;47.524;12.404;2023-04-25T06:01:20;4.28;;;3.03;;
41881;SDS011;27562;47.524;12.404;2023-04-25T06:03:46;5.35;;;3.28;;
41881;SDS011;27562;47.524;12.404;2023-04-25T06:06:12;4.55;;;3.10;;
41881;SDS011;27562;47.524;12.404;2023-04-25T06:08:38;5.38;;;3.30;;
41881;SDS011;27562;47.524;12.404;2023-04-25T06:11:04;4.70;;;2.70;;
41881;SDS011;27562;47.524;12.404;2023-04-25T06:13:29;6.82;;;3.30;;
41881;SDS011;27562;47.524;12.404;2023-04-25T06:15:55;7.85;;;3.33;;
41881;SDS011;27562;47.524;12.404;2023-04-25T06:18:21;6.50;;;3.30;;
41881;SDS011;27562;47.524;12.404;2023-04-25T06:20:46;5.40;;;3.70;;
41881;SDS011;27562;47.524;12.404;2023-04-25T06:23:12;7.78;;;5.78;;
41881;SDS011;27562;47.524;12.404;2023-04-25T06:25:38;15.70;;;10.90;;
41881;SDS011;27562;47.524;12.404;2023-04-25T06:28:03;13.80;;;9.05;;
41881;SDS011;27562;47.524;12.404;2023-04-25T06:30:29;12.23;;;8.50;;
41881;SDS011;27562;47.524;12.404;2023-04-25T06:32:55;11.30;;;7.28;;
41881;SDS011;27562;47.524;12.404;2023-04-25T06:35:20;7.78;;;4.90;;
41881;SDS011;27562;47.524;12.404;2023-04-25T06:37:46;7.90;;;4.32;;
41881;SDS011;27562;47.524;12.404;2023-04-25T06:40:12;5.65;;;3.72;;
41881;SDS011;27562;47.524;12.404;2023-04-25T06:42:38;6.88;;;3.88;;
41881;SDS011;27562;47.524;12.404;2023-04-25T06:45:03;7.45;;;4.40;;
41881;SDS011;27562;47.524;12.404;2023-04-25T06:47:30;7.28;;;4.55;;
41881;SDS011;27562;47.524;12.404;2023-04-25T06:49:55;7.10;;;4.47;;
41881;SDS011;27562;47.524;12.404;2023-04-25T06:52:21;5.85;;;4.15;;
41881;SDS011;27562;47.524;12.404;2023-04-25T06:54:47;5.10;;;3.63;;
41881;SDS011;27562;47.524;12.404;2023-04-25T06:57:12;5.50;;;3.95;;
41881;SDS011;27562;47.524;12.404;2023-04-25T06:59:38;5.90;;;3.65;;
41881;SDS011;27562;47.524;12.404;2023-04-25T07:02:04;5.53;;;3.30;;
41881;SDS011;27562;47.524;12.404;2023-04-25T07:04:31;6.28;;;3.55;;
41881;SDS011;27562;47.524;12.404;2023-04-25T07:06:56;4.93;;;3.10;;
41881;SDS011;27562;47.524;12.404;2023-04-25T07:09:22;5.30;;;2.70;;
41881;SDS011;27562;47.524;12.404;2023-04-25T07:11:48;9.35;;;3.30;;
41881;SDS011;27562;47.524;12.404;2023-04-25T07:14:14;6.30;;;3.15;;
41881;SDS011;27562;47.524;12.404;2023-04-25T07:16:40;5.50;;;2.80;;
41881;SDS011;27562;47.524;12.404;2023-04-25T07:19:05;3.15;;;2.33;;
41881;SDS011;27562;47.524;12.404;2023-04-25T07:21:31;5.40;;;2.35;;
41881;SDS011;27562;47.524;12.404;2023-04-25T07:23:57;3.47;;;1.88;;
41881;SDS011;27562;47.524;12.404;2023-04-25T07:26:23;5.43;;;2.28;;
41881;SDS011;27562;47.524;12.404;2023-04-25T07:28:49;3.22;;;2.00;;
41881;SDS011;27562;47.524;12.404;2023-04-25T07:31:16;4.90;;;2.20;;
41881;SDS011;27562;47.524;12.404;2023-04-25T07:33:43;3.65;;;2.05;;
41881;SDS011;27562;47.524;12.404;2023-04-25T07:36:10;5.18;;;2.17;;
41881;SDS011;27562;47.524;12.404;2023-04-25T07:38:37;6.32;;;2.22;;
41881;SDS011;27562;47.524;12.404;2023-04-25T07:41:03;4.53;;;1.83;;
41881;SDS011;27562;47.524;12.404;2023-04-25T07:43:29;2.90;;;1.77;;
41881;SDS011;27562;47.524;12.404;2023-04-25T07:45:55;3.67;;;1.70;;
41881;SDS011;27562;47.524;12.404;2023-04-25T07:48:21;6.40;;;1.80;;
41881;SDS011;27562;47.524;12.404;2023-04-25T07:50:47;3.58;;;1.80;;
41881;SDS011;27562;47.524;12.404;2023-04-25T07:53:13;5.65;;;1.90;;
41881;SDS011;27562;47.524;12.404;2023-04-25T07:55:38;3.65;;;1.80;;
41881;SDS011;27562;47.524;12.404;2023-04-25T07:58:08;6.03;;;2.45;;
41881;SDS011;27562;47.524;12.404;2023-04-25T08:00:34;8.88;;;3.10;;
41881;SDS011;27562;47.524;12.404;2023-04-25T08:03:00;7.82;;;4.50;;
41881;SDS011;27562;47.524;12.404;2023-04-25T08:05:26;5.13;;;2.60;;
41881;SDS011;27562;47.524;12.404;2023-04-25T08:07:52;5.28;;;1.52;;
41881;SDS011;27562;47.524;12.404;2023-04-25T08:10:17;4.63;;;1.70;;
41881;SDS011;27562;47.524;12.404;2023-04-25T08:12:43;3.95;;;1.80;;
41881;SDS011;27562;47.524;12.404;2023-04-25T08:15:09;3.83;;;2.08;;
41881;SDS011;27562;47.524;12.404;2023-04-25T08:17:35;3.22;;;1.88;;
41881;SDS011;27562;47.524;12.404;2023-04-25T08:20:01;3.40;;;1.70;;
41881;SDS011;27562;47.524;12.404;2023-04-25T08:22:30;4.20;;;1.65;;
41881;SDS011;27562;47.524;12.404;2023-04-25T08:24:56;4.07;;;2.10;;
41881;SDS011;27562;47.524;12.404;2023-04-25T08:27:21;2.83;;;1.80;;
41881;SDS011;27562;47.524;12.404;2023-04-25T08:29:47;4.78;;;2.00;;
41881;SDS011;27562;47.524;12.404;2023-04-25T08:32:13;3.22;;;1.60;;
41881;SDS011;27562;47.524;12.404;2023-04-25T08:34:39;5.47;;;1.60;;
41881;SDS011;27562;47.524;12.404;2023-04-25T08:37:07;6.25;;;1.70;;
41881;SDS011;27562;47.524;12.404;2023-04-25T08:39:34;3.10;;;1.60;;
41881;SDS011;27562;47.524;12.404;2023-04-25T08:42:01;3.45;;;1.77;;
41881;SDS011;27562;47.524;12.404;2023-04-25T08:44:31;3.47;;;2.28;;
41881;SDS011;27562;47.524;12.404;2023-04-25T08:46:58;3.75;;;2.00;;
41881;SDS011;27562;47.524;12.404;2023-04-25T08:49:24;5.68;;;1.88;;
41881;SDS011;27562;47.524;12.404;2023-04-25T08:51:51;3.45;;;1.85;;
41881;SDS011;27562;47.524;12.404;2023-04-25T08:54:18;3.33;;;1.88;;
41881;SDS011;27562;47.524;12.404;2023-04-25T08:56:48;3.95;;;2.10;;
41881;SDS011;27562;47.524;12.404;2023-04-25T08:59:14;4.78;;;2.10;;
41881;SDS011;27562;47.524;12.404;2023-04-25T09:01:40;4.72;;;1.73;;
41881;SDS011;27562;47.524;12.404;2023-04-25T09:04:06;5.10;;;1.83;;
41881;SDS011;27562;47.524;12.404;2023-04-25T09:06:31;3.10;;;1.90;;
41881;SDS011;27562;47.524;12.404;2023-04-25T09:09:05;4.55;;;1.95;;
41881;SDS011;27562;47.524;12.404;2023-04-25T09:11:33;4.65;;;1.95;;
41881;SDS011;27562;47.524;12.404;2023-04-25T09:14:10;4.97;;;2.03;;
41881;SDS011;27562;47.524;12.404;2023-04-25T09:19:38;4.72;;;2.22;;
41881;SDS011;27562;47.524;12.404;2023-04-25T09:22:05;4.13;;;1.80;;
41881;SDS011;27562;47.524;12.404;2023-04-25T09:27:03;3.70;;;1.77;;
41881;SDS011;27562;47.524;12.404;2023-04-25T09:29:31;4.93;;;2.00;;
41881;SDS011;27562;47.524;12.404;2023-04-25T09:32:18;3.15;;;1.70;;
41881;SDS011;27562;47.524;12.404;2023-04-25T09:34:49;7.32;;;3.42;;
41881;SDS011;27562;47.524;12.404;2023-04-25T09:37:20;3.30;;;1.88;;
41881;SDS011;27562;47.524;12.404;2023-04-25T09:39:47;4.80;;;1.92;;
41881;SDS011;27562;47.524;12.404;2023-04-25T09:42:15;2.88;;;1.50;;
41881;SDS011;27562;47.524;12.404;2023-04-25T09:44:45;3.42;;;1.50;;
41881;SDS011;27562;47.524;12.404;2023-04-25T09:47:12;3.33;;;1.40;;
41881;SDS011;27562;47.524;12.404;2023-04-25T09:49:41;3.33;;;1.40;;
41881;SDS011;27562;47.524;12.404;2023-04-25T09:52:08;8.05;;;5.22;;
41881;SDS011;27562;47.524;12.404;2023-04-25T09:54:38;5.43;;;3.20;;
41881;SDS011;27562;47.524;12.404;2023-04-25T09:57:22;2.92;;;1.30;;
41881;SDS011;27562;47.524;12.404;2023-04-25T09:59:50;10.57;;;4.65;;
41881;SDS011;27562;47.524;12.404;2023-04-25T10:02:17;4.63;;;2.20;;
41881;SDS011;27562;47.524;12.404;2023-04-25T10:04:47;5.80;;;3.92;;
41881;SDS011;27562;47.524;12.404;2023-04-25T10:07:14;4.70;;;2.38;;
41881;SDS011;27562;47.524;12.404;2023-04-25T10:09:40;2.05;;;1.00;;
41881;SDS011;27562;47.524;12.404;2023-04-25T10:12:07;2.63;;;1.00;;
41881;SDS011;27562;47.524;12.404;2023-04-25T10:14:33;2.35;;;1.00;;
41881;SDS011;27562;47.524;12.404;2023-04-25T10:16:59;3.15;;;1.20;;
41881;SDS011;27562;47.524;12.404;2023-04-25T10:19:26;4.60;;;1.15;;
41881;SDS011;27562;47.524;12.404;2023-04-25T10:21:54;4.82;;;1.10;;
41881;SDS011;27562;47.524;12.404;2023-04-25T10:24:39;3.63;;;1.20;;
41881;SDS011;27562;47.524;12.404;2023-04-25T10:27:06;4.20;;;0.98;;
41881;SDS011;27562;47.524;12.404;2023-04-25T10:29:33;2.67;;;1.42;;
41881;SDS011;27562;47.524;12.404;2023-04-25T10:32:00;3.25;;;1.55;;
41881;SDS011;27562;47.524;12.404;2023-04-25T10:34:39;4.47;;;1.17;;
41881;SDS011;27562;47.524;12.404;2023-04-25T10:37:08;2.53;;;1.10;;
41881;SDS011;27562;47.524;12.404;2023-04-25T10:39:35;1.60;;;0.82;;
41881;SDS011;27562;47.524;12.404;2023-04-25T10:42:02;3.47;;;1.15;;
41881;SDS011;27562;47.524;12.404;2023-04-25T10:44:29;2.17;;;1.10;;
41881;SDS011;27562;47.524;12.404;2023-04-25T10:46:59;3.50;;;1.02;;
41881;SDS011;27562;47.524;12.404;2023-04-25T10:49:31;3.92;;;0.90;;
41881;SDS011;27562;47.524;12.404;2023-04-25T10:52:28;1.98;;;0.88;;
41881;SDS011;27562;47.524;12.404;2023-04-25T10:54:55;2.40;;;1.00;;
41881;SDS011;27562;47.524;12.404;2023-04-25T10:57:31;2.70;;;0.82;;
41881;SDS011;27562;47.524;12.404;2023-04-25T11:02:37;3.33;;;1.00;;
41881;SDS011;27562;47.524;12.404;2023-04-25T11:08:01;2.08;;;0.93;;
41881;SDS011;27562;47.524;12.404;2023-04-25T11:10:29;1.77;;;0.80;;
41881;SDS011;27562;47.524;12.404;2023-04-25T11:12:56;2.13;;;0.90;;
41881;SDS011;27562;47.524;12.404;2023-04-25T11:15:23;5.90;;;1.02;;
41881;SDS011;27562;47.524;12.404;2023-04-25T11:17:53;2.92;;;0.93;;
41881;SDS011;27562;47.524;12.404;2023-04-25T11:20:20;2.40;;;1.10;;
41881;SDS011;27562;47.524;12.404;2023-04-25T11:22:46;2.88;;;0.65;;
41881;SDS011;27562;47.524;12.404;2023-04-25T11:25:13;3.30;;;1.00;;
41881;SDS011;27562;47.524;12.404;2023-04-25T11:30:19;2.40;;;0.75;;
41881;SDS011;27562;47.524;12.404;2023-04-25T11:32:46;2.53;;;0.70;;
41881;SDS011;27562;47.524;12.404;2023-04-25T11:35:12;2.53;;;1.00;;
41881;SDS011;27562;47.524;12.404;2023-04-25T11:37:39;2.58;;;0.88;;
41881;SDS011;27562;47.524;12.404;2023-04-25T11:40:06;2.60;;;1.08;;
41881;SDS011;27562;47.524;12.404;2023-04-25T11:42:33;4.25;;;0.90;;
41881;SDS011;27562;47.524;12.404;2023-04-25T11:45:01;2.10;;;0.90;;
41881;SDS011;27562;47.524;12.404;2023-04-25T11:47:29;1.50;;;0.70;;
41881;SDS011;27562;47.524;12.404;2023-04-25T11:49:57;3.17;;;1.00;;
41881;SDS011;27562;47.524;12.404;2023-04-25T11:52:24;3.15;;;1.00;;
41881;SDS011;27562;47.524;12.404;2023-04-25T11:55:00;2.00;;;0.90;;
41881;SDS011;27562;47.524;12.404;2023-04-25T11:57:25;2.55;;;1.00;;
41881;SDS011;27562;47.524;12.404;2023-04-25T11:59:51;2.42;;;0.90;;
41881;SDS011;27562;47.524;12.404;2023-04-25T12:02:24;1.83;;;0.88;;
41881;SDS011;27562;47.524;12.404;2023-04-25T12:04:50;2.17;;;0.80;;
41881;SDS011;27562;47.524;12.404;2023-04-25T12:07:16;3.25;;;1.10;;
41881;SDS011;27562;47.524;12.404;2023-04-25T12:09:43;1.63;;;0.90;;
41881;SDS011;27562;47.524;12.404;2023-04-25T12:12:17;1.67;;;0.80;;
41881;SDS011;27562;47.524;12.404;2023-04-25T12:14:47;2.30;;;0.85;;
41881;SDS011;27562;47.524;12.404;2023-04-25T12:17:14;15.20;;;5.93;;
41881;SDS011;27562;47.524;12.404;2023-04-25T12:19:40;6.85;;;3.03;;
41881;SDS011;27562;47.524;12.404;2023-04-25T12:22:18;3.08;;;0.88;;
41881;SDS011;27562;47.524;12.404;2023-04-25T12:24:46;3.80;;;1.00;;
41881;SDS011;27562;47.524;12.404;2023-04-25T12:27:13;1.75;;;0.73;;
41881;SDS011;27562;47.524;12.404;2023-04-25T12:29:49;2.72;;;0.82;;
41881;SDS011;27562;47.524;12.404;2023-04-25T12:32:16;2.50;;;0.77;;
41881;SDS011;27562;47.524;12.404;2023-04-25T12:34:42;3.25;;;1.27;;
41881;SDS011;27562;47.524;12.404;2023-04-25T12:37:09;3.08;;;1.10;;
41881;SDS011;27562;47.524;12.404;2023-04-25T12:39:35;2.70;;;0.93;;
41881;SDS011;27562;47.524;12.404;2023-04-25T12:42:01;1.80;;;0.82;;
41881;SDS011;27562;47.524;12.404;2023-04-25T12:44:27;1.55;;;0.80;;
41881;SDS011;27562;47.524;12.404;2023-04-25T12:46:52;1.60;;;0.80;;
41881;SDS011;27562;47.524;12.404;2023-04-25T12:49:19;2.15;;;0.95;;
41881;SDS011;27562;47.524;12.404;2023-04-25T12:51:45;4.30;;;1.30;;
41881;SDS011;27562;47.524;12.404;2023-04-25T12:54:11;2.35;;;1.10;;
41881;SDS011;27562;47.524;12.404;2023-04-25T12:56:39;1.98;;;0.80;;
41881;SDS011;27562;47.524;12.404;2023-04-25T12:59:06;2.40;;;0.75;;
41881;SDS011;27562;47.524;12.404;2023-04-25T13:01:32;3.08;;;0.90;;
41881;SDS011;27562;47.524;12.404;2023-04-25T13:03:57;3.47;;;1.17;;
41881;SDS011;27562;47.524;12.404;2023-04-25T13:06:23;1.55;;;1.13;;
41881;SDS011;27562;47.524;12.404;2023-04-25T13:08:49;1.35;;;0.63;;
41881;SDS011;27562;47.524;12.404;2023-04-25T13:11:15;2.65;;;0.70;;
41881;SDS011;27562;47.524;12.404;2023-04-25T13:13:41;2.20;;;0.75;;
41881;SDS011;27562;47.524;12.404;2023-04-25T13:16:07;1.98;;;0.60;;
41881;SDS011;27562;47.524;12.404;2023-04-25T13:18:33;2.17;;;0.70;;
41881;SDS011;27562;47.524;12.404;2023-04-25T13:20:59;1.23;;;0.60;;
41881;SDS011;27562;47.524;12.404;2023-04-25T13:23:26;2.45;;;0.50;;
41881;SDS011;27562;47.524;12.404;2023-04-25T13:25:53;1.00;;;0.60;;
41881;SDS011;27562;47.524;12.404;2023-04-25T13:28:20;2.80;;;0.90;;
41881;SDS011;27562;47.524;12.404;2023-04-25T13:30:46;2.00;;;0.50;;
41881;SDS011;27562;47.524;12.404;2023-04-25T13:33:13;1.13;;;0.65;;
41881;SDS011;27562;47.524;12.404;2023-04-25T13:35:40;0.60;;;0.47;;
41881;SDS011;27562;47.524;12.404;2023-04-25T13:38:06;3.00;;;0.50;;
41881;SDS011;27562;47.524;12.404;2023-04-25T13:40:32;1.00;;;0.45;;
41881;SDS011;27562;47.524;12.404;2023-04-25T13:42:58;0.68;;;0.40;;
41881;SDS011;27562;47.524;12.404;2023-04-25T13:45:24;2.05;;;0.40;;
41881;SDS011;27562;47.524;12.404;2023-04-25T13:47:50;1.05;;;0.32;;
41881;SDS011;27562;47.524;12.404;2023-04-25T13:50:15;0.68;;;0.45;;
41881;SDS011;27562;47.524;12.404;2023-04-25T13:52:41;0.60;;;0.50;;
41881;SDS011;27562;47.524;12.404;2023-04-25T13:55:08;0.70;;;0.40;;
41881;SDS011;27562;47.524;12.404;2023-04-25T13:57:35;2.13;;;0.60;;
41881;SDS011;27562;47.524;12.404;2023-04-25T14:00:02;1.38;;;0.43;;
41881;SDS011;27562;47.524;12.404;2023-04-25T14:02:34;0.90;;;0.43;;
41881;SDS011;27562;47.524;12.404;2023-04-25T14:05:00;0.20;;;0.20;;
41881;SDS011;27562;47.524;12.404;2023-04-25T14:07:26;0.60;;;0.32;;
41881;SDS011;27562;47.524;12.404;2023-04-25T14:09:52;0.65;;;0.40;;
41881;SDS011;27562;47.524;12.404;2023-04-25T14:12:18;1.25;;;0.38;;
41881;SDS011;27562;47.524;12.404;2023-04-25T14:14:43;1.40;;;0.55;;
41881;SDS011;27562;47.524;12.404;2023-04-25T14:17:09;1.23;;;0.30;;
41881;SDS011;27562;47.524;12.404;2023-04-25T14:19:35;0.80;;;0.40;;
41881;SDS011;27562;47.524;12.404;2023-04-25T14:22:03;0.60;;;0.35;;
41881;SDS011;27562;47.524;12.404;2023-04-25T14:24:29;0.47;;;0.38;;
41881;SDS011;27562;47.524;12.404;2023-04-25T14:26:55;0.93;;;0.40;;
41881;SDS011;27562;47.524;12.404;2023-04-25T14:29:21;0.50;;;0.40;;
41881;SDS011;27562;47.524;12.404;2023-04-25T14:31:47;0.38;;;0.20;;
41881;SDS011;27562;47.524;12.404;2023-04-25T14:34:12;0.40;;;0.30;;
41881;SDS011;27562;47.524;12.404;2023-04-25T14:36:38;1.38;;;0.50;;
41881;SDS011;27562;47.524;12.404;2023-04-25T14:39:04;0.60;;;0.50;;
41881;SDS011;27562;47.524;12.404;2023-04-25T14:41:30;1.48;;;0.50;;
41881;SDS011;27562;47.524;12.404;2023-04-25T14:43:56;3.50;;;0.60;;